Terminal Aerodrome Forecast
Issued by NWS Grand Forks, ND

Home | Current Version | Previous Version | Text Only | Print | Product List | Glossary On
Versions: 1 2 3 4 5 6 7 8 9 10 11 12 13 14 15 16 17 18 19 20 21 22 23
088
FTUS43 KFGF 181555 AAA
TAFGFK
TAF AMD
KGFK 181555Z 1816/1912 31011KT P6SM SCT050
     FM181700 32013KT P6SM FEW250
     FM190400 27006KT P6SM FEW250=

USA.gov is the U.S. government's official web portal to all federal, state and local government web resources and services.